Kezdőlap
METAR-TAF:

METAR-TAF

Repülőterek :

Wallis, Franciaország

földrajzi szélesség: 13-14S, földrajzi hosszúság: 176-10W, magasság: 23 m

METAR: hiányzik

Idő: 02:51 (14:51 UTC)

Előrejelzés

A jelentés 3 órával és 51 perccel ezelõtt készült, 11:00 UTC
Az előrejelzés 19-én 12 óra UTC és 20-én 12 óra UTC között érvényes
Különbözõ irányokból fújó szél 2 kt
Látótávolság 10 km, vagy több
Szórványos felhőzet 2000 lábon
Valószínűség 40% :
19-én 18 óra UTC és 20-én 06 óra UTC között ideiglenes
Különbözõ irányokból fújó szél 15 kt széllökések: 25 kt
Látótávolság: 2000 m
Szakadozott felhőzet 800 lábon
Kevés felhő 2000 lábon, Cumulonimbus.
záporok

TAF: NLWW 191100Z 1912/2012 VRB02KT 9999 SCT020 PROB40 TEMPO 1918/2006 VRB15G25KT 2000 SHRA BKN008 FEW020CB

Meteorológiai megfigyelések és előrejelzések több, mint 4000 repülőtéren (METAR és TAF jelentéseket).

A térképen piros és sárga pontok jelzik az elérhető meteorológiai állomásokat.

Mozgassa az egeret a pont fölött, hogy megjelenjen az állomás neve.

Azután kattintson az időjárási megfigyelések és előrejelzések megtekintéséhez.

A térkép megváltoztatása: kattintson a fekete keresztel jelölt zöld gombra ráközelítéshez, a vonallal jelölt zöld gombra távolításhoz, vagy a zöld nyilakra a szomszédos térképek eléréséhez.


METAR-TAF: